Time;durP1;ratioP1;P1;durP2;ratioP2;P2;SDS_P1;SDS_P2;PMS_P1;PMS_P2;Temp;Humidity;BMP_temperature;BMP_pressure;BME280_temperature;BME280_humidity;BME280_pressure;Samples;Min_cycle;Max_cycle;Signal;HPM_P1;HPM_P2
2021/05/13 00:01:23;;;;;;;;;;;21.70;54.90;;;;;;5030300;28;19916;-64
2021/05/13 00:03:52;;;;;;;;;;;21.60;54.90;;;;;;5030845;28;19928;-64
2021/05/13 00:06:17;;;;;;;;;;;21.70;54.90;;;;;;5033544;28;19917;-66
2021/05/13 00:08:43;;;;;;;;;;;21.60;54.90;;;;;;5001316;28;19924;-65
2021/05/13 00:11:09;;;;;;;;;;;21.60;54.80;;;;;;5017368;28;19933;-66
2021/05/13 00:13:35;;;;;;;;;;;21.60;54.90;;;;;;5017308;28;19967;-66
2021/05/13 00:16:00;;;;;;;;;;;21.60;54.90;;;;;;5018778;28;19945;-66
2021/05/13 00:18:26;;;;;;;;;;;21.60;54.90;;;;;;5028113;28;19927;-66
2021/05/13 00:20:52;;;;;;;;;;;21.60;54.90;;;;;;5025934;28;20300;-66
2021/05/13 00:23:17;;;;;;;;;;;21.60;54.90;;;;;;5003909;28;19923;-66
2021/05/13 00:25:43;;;;;;;;;;;21.60;55.60;;;;;;5018350;28;19925;-66
2021/05/13 00:28:08;;;;;;;;;;;21.60;54.90;;;;;;5023335;28;20477;-66
2021/05/13 00:30:34;;;;;;;;;;;21.60;54.90;;;;;;5025466;28;20082;-66
2021/05/13 00:32:59;;;;;;;;;;;21.60;54.90;;;;;;5021676;28;19970;-66
2021/05/13 00:35:25;;;;;;;;;;;21.60;54.90;;;;;;5019895;28;19917;-66
2021/05/13 00:37:50;;;;;;;;;;;21.50;54.80;;;;;;5026146;28;19921;-66
2021/05/13 00:40:16;;;;;;;;;;;21.50;54.80;;;;;;5004602;28;20695;-66
2021/05/13 00:42:42;;;;;;;;;;;21.50;54.80;;;;;;5027834;28;19924;-66
2021/05/13 00:45:08;;;;;;;;;;;21.60;54.90;;;;;;5010921;28;20339;-66
2021/05/13 00:47:36;;;;;;;;;;;21.50;54.80;;;;;;5018753;28;19917;-67
2021/05/13 00:50:02;;;;;;;;;;;21.50;54.80;;;;;;5032792;28;21448;-66
2021/05/13 00:52:27;;;;;;;;;;;21.50;54.80;;;;;;5033278;28;19921;-66
2021/05/13 00:54:53;;;;;;;;;;;21.50;54.80;;;;;;5001191;28;20380;-66
2021/05/13 00:57:18;;;;;;;;;;;21.50;54.90;;;;;;5016355;28;19952;-66
2021/05/13 00:59:47;;;;;;;;;;;21.50;54.80;;;;;;5022662;28;19924;-67
2021/05/13 01:02:13;;;;;;;;;;;21.50;54.80;;;;;;5034244;28;19921;-66
2021/05/13 01:04:38;;;;;;;;;;;21.50;54.90;;;;;;5033796;28;19982;-66
2021/05/13 01:07:04;;;;;;;;;;;21.50;54.90;;;;;;5026600;28;19917;-66
2021/05/13 01:09:31;;;;;;;;;;;21.50;54.90;;;;;;5029481;28;19921;-66
2021/05/13 01:12:39;;;;;;;;;;;21.50;54.90;;;;;;5025476;28;19944;-66
2021/05/13 01:14:48;;;;;;;;;;;21.50;54.80;;;;;;5020271;28;19921;-67
2021/05/13 01:19:39;;;;;;;;;;;21.50;54.90;;;;;;5022517;28;19927;-65
2021/05/13 01:22:05;;;;;;;;;;;21.50;54.90;;;;;;5001438;28;19917;-65
2021/05/13 01:24:30;;;;;;;;;;;21.50;54.90;;;;;;5014789;28;20380;-66
2021/05/13 01:26:56;;;;;;;;;;;21.50;54.80;;;;;;5002822;28;20000;-66
2021/05/13 01:29:22;;;;;;;;;;;21.50;54.90;;;;;;5031123;28;19932;-66
2021/05/13 01:31:48;;;;;;;;;;;21.50;54.80;;;;;;5031267;28;19917;-66
2021/05/13 01:34:13;;;;;;;;;;;21.50;54.80;;;;;;5021572;28;20284;-66
2021/05/13 01:36:38;;;;;;;;;;;21.50;54.80;;;;;;5021586;28;20229;-66
2021/05/13 01:39:05;;;;;;;;;;;21.50;54.80;;;;;;5014201;28;19917;-66
2021/05/13 01:41:30;;;;;;;;;;;21.50;54.80;;;;;;5015591;28;20292;-66
2021/05/13 01:43:55;;;;;;;;;;;21.40;54.80;;;;;;5029048;28;19931;-66
2021/05/13 01:46:21;;;;;;;;;;;21.40;54.80;;;;;;5007103;28;20010;-66
2021/05/13 01:48:46;;;;;;;;;;;21.40;54.80;;;;;;5020813;28;19918;-66
2021/05/13 01:51:12;;;;;;;;;;;21.40;54.80;;;;;;5031059;28;19917;-66
2021/05/13 01:53:41;;;;;;;;;;;21.40;54.80;;;;;;5029364;28;19921;-66
2021/05/13 01:56:07;;;;;;;;;;;21.40;54.80;;;;;;5024963;28;20338;-67
2021/05/13 01:58:32;;;;;;;;;;;21.40;54.80;;;;;;5006865;28;19918;-66
2021/05/13 02:00:57;;;;;;;;;;;21.40;54.80;;;;;;5018192;28;19917;-66
2021/05/13 02:03:25;;;;;;;;;;;21.40;54.80;;;;;;5010339;28;19973;-66
2021/05/13 02:05:50;;;;;;;;;;;21.40;54.80;;;;;;5029536;28;19962;-66
2021/05/13 02:08:16;;;;;;;;;;;21.40;54.80;;;;;;5028424;28;20353;-68
2021/05/13 02:10:41;;;;;;;;;;;21.40;54.80;;;;;;5022724;28;19922;-66
2021/05/13 02:13:06;;;;;;;;;;;21.40;54.80;;;;;;5039172;28;19994;-66
2021/05/13 02:15:32;;;;;;;;;;;21.30;54.80;;;;;;5039383;28;19917;-66
2021/05/13 02:17:57;;;;;;;;;;;21.40;54.90;;;;;;5022952;28;19922;-66
2021/05/13 02:20:23;;;;;;;;;;;21.40;54.90;;;;;;5029564;28;19925;-66
2021/05/13 02:22:49;;;;;;;;;;;21.30;54.80;;;;;;5034621;28;20051;-67
2021/05/13 02:25:14;;;;;;;;;;;21.30;54.80;;;;;;5029735;28;20205;-66
2021/05/13 02:27:40;;;;;;;;;;;21.40;54.90;;;;;;5037054;28;20297;-67
2021/05/13 02:30:09;;;;;;;;;;;21.30;54.90;;;;;;5038621;28;19966;-66
2021/05/13 02:32:34;;;;;;;;;;;21.40;54.90;;;;;;5037394;28;19928;-65
2021/05/13 02:35:00;;;;;;;;;;;21.40;55.50;;;;;;5024419;28;19921;-66
2021/05/13 02:37:25;;;;;;;;;;;21.30;54.80;;;;;;5032393;28;20407;-67
2021/05/13 02:39:51;;;;;;;;;;;21.30;54.90;;;;;;5033223;28;19940;-66
2021/05/13 02:42:16;;;;;;;;;;;21.30;54.80;;;;;;5034535;28;19921;-65
2021/05/13 02:44:42;;;;;;;;;;;21.40;54.90;;;;;;5021838;28;19924;-66
2021/05/13 02:47:07;;;;;;;;;;;21.30;54.80;;;;;;5013768;28;20008;-66
2021/05/13 02:49:33;;;;;;;;;;;21.30;54.80;;;;;;5037308;28;19917;-67
2021/05/13 02:51:58;;;;;;;;;;;21.30;54.80;;;;;;5045104;28;19917;-66
2021/05/13 02:54:23;;;;;;;;;;;21.30;54.80;;;;;;5041786;28;20004;-67
2021/05/13 02:56:49;;;;;;;;;;;21.30;54.80;;;;;;5031210;28;19983;-66
2021/05/13 02:59:16;;;;;;;;;;;21.30;54.80;;;;;;5025839;28;19921;-65
2021/05/13 03:01:42;;;;;;;;;;;21.30;54.80;;;;;;5028771;28;19925;-67
2021/05/13 03:04:07;;;;;;;;;;;21.30;54.80;;;;;;5029394;28;19975;-67
2021/05/13 03:06:33;;;;;;;;;;;21.30;54.80;;;;;;5027389;28;20393;-66
2021/05/13 03:08:59;;;;;;;;;;;21.30;54.80;;;;;;5035766;28;19959;-66
2021/05/13 03:11:26;;;;;;;;;;;21.30;54.80;;;;;;5029988;28;19952;-66
2021/05/13 03:13:57;;;;;;;;;;;21.30;54.80;;;;;;5036822;28;20372;-66
2021/05/13 03:16:22;;;;;;;;;;;21.30;54.80;;;;;;5037281;28;19921;-66
2021/05/13 03:18:52;;;;;;;;;;;21.30;54.80;;;;;;5024870;28;19925;-66
2021/05/13 03:21:23;;;;;;;;;;;21.30;54.80;;;;;;5022294;28;19922;-66
2021/05/13 03:29:11;;;;;;;;;;;21.30;54.80;;;;;;4996290;28;19917;-66
2021/05/13 03:31:36;;;;;;;;;;;21.30;54.80;;;;;;5033190;28;19920;-66
2021/05/13 03:34:02;;;;;;;;;;;21.30;54.90;;;;;;5030490;28;19924;-66
2021/05/13 03:36:27;;;;;;;;;;;21.30;54.90;;;;;;5023329;28;20343;-66
2021/05/13 03:38:53;;;;;;;;;;;21.20;54.90;;;;;;5022288;28;20310;-66
2021/05/13 03:41:18;;;;;;;;;;;21.20;54.80;;;;;;5020960;28;19921;-65
2021/05/13 03:43:44;;;;;;;;;;;21.20;54.90;;;;;;5030964;28;19944;-65
2021/05/13 03:46:09;;;;;;;;;;;21.20;54.80;;;;;;5030485;28;19967;-64
2021/05/13 03:48:35;;;;;;;;;;;21.20;54.90;;;;;;5034077;28;20287;-65
2021/05/13 03:51:00;;;;;;;;;;;21.20;54.80;;;;;;5022774;28;19990;-65
2021/05/13 03:53:25;;;;;;;;;;;21.20;54.80;;;;;;5029167;28;19921;-66
2021/05/13 03:55:51;;;;;;;;;;;21.20;54.90;;;;;;5019794;28;19922;-64
2021/05/13 03:58:18;;;;;;;;;;;21.20;54.90;;;;;;5024522;28;20345;-65
2021/05/13 04:01:02;;;;;;;;;;;21.20;54.80;;;;;;5028708;28;19971;-65
2021/05/13 04:03:28;;;;;;;;;;;21.20;55.30;;;;;;5025305;28;19982;-66
2021/05/13 04:05:53;;;;;;;;;;;21.20;54.90;;;;;;5022549;28;20520;-65
2021/05/13 04:08:19;;;;;;;;;;;21.20;54.90;;;;;;5035306;28;19920;-66
2021/05/13 04:10:44;;;;;;;;;;;21.20;54.90;;;;;;5029177;28;19928;-66
2021/05/13 04:13:11;;;;;;;;;;;21.20;54.80;;;;;;5023933;28;19971;-63
2021/05/13 04:15:37;;;;;;;;;;;21.20;54.90;;;;;;5036214;28;19916;-66
2021/05/13 04:18:02;;;;;;;;;;;21.20;54.90;;;;;;5030028;28;19929;-66
2021/05/13 04:20:28;;;;;;;;;;;21.20;54.90;;;;;;5017218;28;20371;-65
2021/05/13 04:22:53;;;;;;;;;;;21.10;54.80;;;;;;5022104;28;19932;-66
2021/05/13 04:25:19;;;;;;;;;;;21.10;54.80;;;;;;5034289;28;19926;-66
2021/05/13 04:27:44;;;;;;;;;;;21.20;54.90;;;;;;5026486;28;20350;-66
2021/05/13 04:30:10;;;;;;;;;;;21.10;54.80;;;;;;5029043;28;19925;-65
2021/05/13 04:32:35;;;;;;;;;;;21.10;54.90;;;;;;5017398;28;19917;-66
2021/05/13 04:35:01;;;;;;;;;;;21.10;54.90;;;;;;5022267;28;19966;-66
2021/05/13 04:37:27;;;;;;;;;;;21.10;54.90;;;;;;5024627;28;20376;-66
2021/05/13 04:39:52;;;;;;;;;;;21.10;54.90;;;;;;5006685;28;20670;-66
2021/05/13 04:42:18;;;;;;;;;;;21.10;54.90;;;;;;5030463;28;20277;-67
2021/05/13 04:44:43;;;;;;;;;;;21.10;54.90;;;;;;5029288;28;20129;-66
2021/05/13 04:47:25;;;;;;;;;;;21.10;54.90;;;;;;5019229;28;19932;-66
2021/05/13 04:49:51;;;;;;;;;;;21.10;54.90;;;;;;5023668;28;19924;-66
2021/05/13 04:52:17;;;;;;;;;;;21.10;54.90;;;;;;5022632;28;19932;-66
2021/05/13 04:54:43;;;;;;;;;;;21.10;54.90;;;;;;5017881;28;19917;-66
2021/05/13 04:57:08;;;;;;;;;;;21.10;54.90;;;;;;5014704;28;19925;-65
2021/05/13 04:59:34;;;;;;;;;;;21.10;54.90;;;;;;5022712;28;19917;-65
2021/05/13 05:01:59;;;;;;;;;;;21.10;54.90;;;;;;5018331;28;19936;-66
2021/05/13 05:04:25;;;;;;;;;;;21.10;55.00;;;;;;5009645;28;20338;-65
2021/05/13 05:06:50;;;;;;;;;;;21.10;55.00;;;;;;5023481;28;19917;-66
2021/05/13 05:09:16;;;;;;;;;;;21.10;55.00;;;;;;5019579;28;20208;-67
2021/05/13 05:11:41;;;;;;;;;;;21.00;54.90;;;;;;5016556;28;19921;-60
2021/05/13 05:14:07;;;;;;;;;;;21.10;55.00;;;;;;5009009;28;19917;-66
2021/05/13 05:16:32;;;;;;;;;;;21.10;55.00;;;;;;5028048;28;20077;-66
2021/05/13 05:18:57;;;;;;;;;;;21.00;54.90;;;;;;5023039;28;19956;-65
2021/05/13 05:21:23;;;;;;;;;;;21.10;54.90;;;;;;5029002;28;19924;-64
2021/05/13 05:23:48;;;;;;;;;;;21.00;55.00;;;;;;5019500;28;20285;-65
2021/05/13 05:26:14;;;;;;;;;;;21.00;54.90;;;;;;5022648;28;19921;-66
2021/05/13 05:28:39;;;;;;;;;;;21.00;54.90;;;;;;5024287;28;20371;-65
2021/05/13 05:31:05;;;;;;;;;;;21.00;54.90;;;;;;5024245;28;19929;-66
2021/05/13 05:33:30;;;;;;;;;;;21.00;54.90;;;;;;5025638;28;20009;-64
2021/05/13 05:35:55;;;;;;;;;;;21.00;54.90;;;;;;5014957;28;19917;-66
2021/05/13 05:38:21;;;;;;;;;;;21.00;55.00;;;;;;5025897;28;20548;-66
2021/05/13 05:40:47;;;;;;;;;;;21.00;54.90;;;;;;5025529;28;19921;-66
2021/05/13 05:43:12;;;;;;;;;;;21.00;54.90;;;;;;5025017;28;19921;-65
2021/05/13 05:45:37;;;;;;;;;;;21.00;55.00;;;;;;5022035;28;20184;-66
2021/05/13 05:48:04;;;;;;;;;;;21.00;54.90;;;;;;5027105;28;19924;-66
2021/05/13 05:50:39;;;;;;;;;;;21.00;55.00;;;;;;5023102;28;19918;-65
2021/05/13 05:53:04;;;;;;;;;;;21.00;54.90;;;;;;5026613;28;19991;-65
2021/05/13 05:55:31;;;;;;;;;;;21.00;54.90;;;;;;5018770;28;20396;-64
2021/05/13 05:57:56;;;;;;;;;;;21.00;55.00;;;;;;5020903;28;19925;-66
2021/05/13 06:00:21;;;;;;;;;;;21.00;54.90;;;;;;5019037;28;19982;-66
2021/05/13 06:02:47;;;;;;;;;;;21.00;54.90;;;;;;5022366;28;19916;-66
2021/05/13 06:05:13;;;;;;;;;;;21.00;55.00;;;;;;5021096;28;20406;-67
2021/05/13 06:07:38;;;;;;;;;;;21.00;54.90;;;;;;5005477;28;19917;-66
2021/05/13 06:10:07;;;;;;;;;;;21.00;54.90;;;;;;5022990;28;19925;-66
2021/05/13 06:12:33;;;;;;;;;;;21.00;55.00;;;;;;5020463;28;19944;-65
2021/05/13 06:14:58;;;;;;;;;;;20.90;54.90;;;;;;5034249;28;19923;-66
2021/05/13 06:17:24;;;;;;;;;;;20.90;54.90;;;;;;5023216;28;19925;-66
2021/05/13 06:19:49;;;;;;;;;;;20.90;54.90;;;;;;5011285;28;19927;-65
2021/05/13 06:22:15;;;;;;;;;;;21.00;55.00;;;;;;5028851;28;19918;-66
2021/05/13 06:24:40;;;;;;;;;;;20.90;54.90;;;;;;5025518;28;19921;-66
2021/05/13 06:27:06;;;;;;;;;;;20.90;55.00;;;;;;5024389;28;19929;-66
2021/05/13 06:29:31;;;;;;;;;;;20.90;55.00;;;;;;5019495;28;20384;-65
2021/05/13 06:31:56;;;;;;;;;;;20.90;55.00;;;;;;5021203;28;19963;-64
2021/05/13 06:34:22;;;;;;;;;;;20.90;55.00;;;;;;5022740;28;19921;-64
2021/05/13 06:36:47;;;;;;;;;;;20.90;55.00;;;;;;5023379;28;20368;-63
2021/05/13 06:39:13;;;;;;;;;;;20.90;55.10;;;;;;5006182;28;19924;-67
2021/05/13 06:41:41;;;;;;;;;;;20.90;55.20;;;;;;5037522;28;20386;-67
2021/05/13 06:44:06;;;;;;;;;;;20.90;55.20;;;;;;5003356;28;20292;-67
2021/05/13 06:46:32;;;;;;;;;;;20.90;55.80;;;;;;5019391;28;19921;-67
2021/05/13 06:48:57;;;;;;;;;;;20.90;56.30;;;;;;5025058;28;19918;-64
2021/05/13 06:51:23;;;;;;;;;;;20.90;56.40;;;;;;5019278;28;19928;-68
2021/05/13 06:53:49;;;;;;;;;;;20.90;56.80;;;;;;5018427;28;20384;-67
2021/05/13 06:56:15;;;;;;;;;;;20.90;57.20;;;;;;5031258;28;19917;-68
2021/05/13 06:58:41;;;;;;;;;;;20.90;57.70;;;;;;5027117;28;19921;-68
2021/05/13 07:01:06;;;;;;;;;;;20.80;58.00;;;;;;5025114;28;20391;-63
2021/05/13 07:03:31;;;;;;;;;;;20.80;58.30;;;;;;5027533;28;19934;-65
2021/05/13 07:05:57;;;;;;;;;;;20.80;58.40;;;;;;5002372;28;20004;-67
2021/05/13 07:08:22;;;;;;;;;;;20.80;58.30;;;;;;5006088;28;20434;-66
2021/05/13 07:10:48;;;;;;;;;;;20.90;58.10;;;;;;5030097;28;19917;-64
2021/05/13 07:13:13;;;;;;;;;;;20.80;58.00;;;;;;5028497;28;20338;-65
2021/05/13 07:15:39;;;;;;;;;;;20.90;57.90;;;;;;5011699;28;19924;-66
2021/05/13 07:18:04;;;;;;;;;;;20.90;57.90;;;;;;5033794;28;19928;-65
2021/05/13 07:20:31;;;;;;;;;;;20.90;57.70;;;;;;5022682;28;19921;-66
2021/05/13 07:22:57;;;;;;;;;;;20.90;57.60;;;;;;5024974;28;19924;-67
2021/05/13 07:25:23;;;;;;;;;;;20.90;57.50;;;;;;5026283;28;19925;-66
2021/05/13 07:27:49;;;;;;;;;;;20.90;57.50;;;;;;5025428;28;20360;-67
2021/05/13 07:30:15;;;;;;;;;;;20.90;57.40;;;;;;5023984;28;19917;-64
2021/05/13 07:32:40;;;;;;;;;;;20.90;57.20;;;;;;5026715;28;19924;-65
2021/05/13 07:35:06;;;;;;;;;;;20.90;57.10;;;;;;5027946;28;19984;-67
2021/05/13 07:37:32;;;;;;;;;;;20.90;57.10;;;;;;5008434;28;19939;-65
2021/05/13 07:39:58;;;;;;;;;;;20.90;57.00;;;;;;5035437;28;20292;-63
2021/05/13 07:42:23;;;;;;;;;;;21.00;56.90;;;;;;5020368;28;20017;-66
2021/05/13 07:44:49;;;;;;;;;;;20.90;56.80;;;;;;4997719;28;19921;-66
2021/05/13 07:47:14;;;;;;;;;;;21.00;56.70;;;;;;5034999;28;19947;-65
2021/05/13 07:49:40;;;;;;;;;;;20.90;56.60;;;;;;5032519;28;20398;-66
2021/05/13 07:52:05;;;;;;;;;;;20.90;56.60;;;;;;5024535;28;19925;-66
2021/05/13 07:54:31;;;;;;;;;;;20.90;56.50;;;;;;5028930;28;19917;-66
2021/05/13 07:56:56;;;;;;;;;;;20.90;56.40;;;;;;5013202;28;19917;-67
2021/05/13 07:59:22;;;;;;;;;;;21.00;56.60;;;;;;5023052;28;19991;-67
2021/05/13 08:01:47;;;;;;;;;;;20.90;57.30;;;;;;5033212;28;19916;-65
2021/05/13 08:04:13;;;;;;;;;;;20.90;58.20;;;;;;5022268;28;20550;-66
2021/05/13 08:06:38;;;;;;;;;;;20.90;58.60;;;;;;5024306;28;19917;-66
2021/05/13 08:09:04;;;;;;;;;;;20.90;58.80;;;;;;5023755;28;19917;-66
2021/05/13 08:11:29;;;;;;;;;;;21.00;58.80;;;;;;5026965;28;19925;-67
2021/05/13 08:13:54;;;;;;;;;;;21.00;58.90;;;;;;5023669;28;19943;-68
2021/05/13 08:16:20;;;;;;;;;;;21.00;58.90;;;;;;5005788;28;19928;-69
2021/05/13 08:18:45;;;;;;;;;;;21.00;58.80;;;;;;5022932;28;19921;-67
2021/05/13 08:21:11;;;;;;;;;;;21.00;58.70;;;;;;5017520;28;20351;-67
2021/05/13 08:23:36;;;;;;;;;;;21.00;58.70;;;;;;5025284;28;19925;-67
2021/05/13 08:26:02;;;;;;;;;;;21.00;58.60;;;;;;5022640;28;20020;-67
2021/05/13 08:28:27;;;;;;;;;;;21.00;58.60;;;;;;5014554;28;20483;-68
2021/05/13 08:30:53;;;;;;;;;;;21.00;58.50;;;;;;5032690;28;19917;-68
2021/05/13 08:33:18;;;;;;;;;;;21.00;58.40;;;;;;5023658;28;19967;-68
2021/05/13 08:35:43;;;;;;;;;;;21.00;58.40;;;;;;5025425;28;19917;-67
2021/05/13 08:38:09;;;;;;;;;;;21.00;58.30;;;;;;5023317;28;20388;-67
2021/05/13 08:40:34;;;;;;;;;;;21.00;58.00;;;;;;5014885;28;19921;-68
2021/05/13 08:43:00;;;;;;;;;;;21.00;57.70;;;;;;5022232;28;19974;-68
2021/05/13 08:45:26;;;;;;;;;;;21.00;57.70;;;;;;5006325;28;20387;-68
2021/05/13 08:47:51;;;;;;;;;;;21.00;57.80;;;;;;5029736;28;20520;-68
2021/05/13 08:50:17;;;;;;;;;;;21.00;57.80;;;;;;5018653;28;19972;-68
2021/05/13 08:52:42;;;;;;;;;;;21.00;57.80;;;;;;5026072;28;19976;-66
2021/05/13 08:55:08;;;;;;;;;;;21.00;57.80;;;;;;5028972;28;20007;-68
2021/05/13 08:57:33;;;;;;;;;;;21.00;57.90;;;;;;5005590;28;19926;-67
2021/05/13 08:59:59;;;;;;;;;;;21.00;57.80;;;;;;5003303;28;19928;-67
2021/05/13 09:02:27;;;;;;;;;;;21.00;57.80;;;;;;5022310;28;19917;-67
2021/05/13 09:04:53;;;;;;;;;;;21.00;57.70;;;;;;5003943;28;19925;-67
2021/05/13 09:07:23;;;;;;;;;;;21.00;57.80;;;;;;5028128;28;19932;-67
2021/05/13 09:09:54;;;;;;;;;;;21.00;57.80;;;;;;4998526;28;19948;-68
2021/05/13 09:12:20;;;;;;;;;;;21.00;57.80;;;;;;5023165;28;19921;-67
2021/05/13 09:14:52;;;;;;;;;;;21.00;57.70;;;;;;5017568;28;19925;-67
2021/05/13 09:17:21;;;;;;;;;;;21.00;57.70;;;;;;5001609;28;21470;-67
2021/05/13 09:19:47;;;;;;;;;;;21.00;57.70;;;;;;5003833;28;20024;-68
2021/05/13 09:22:12;;;;;;;;;;;21.00;57.70;;;;;;4999590;28;20027;-67
2021/05/13 09:24:50;;;;;;;;;;;21.00;57.60;;;;;;5034803;28;19921;-68
2021/05/13 09:27:15;;;;;;;;;;;21.00;57.70;;;;;;5013672;28;20004;-66
2021/05/13 09:29:41;;;;;;;;;;;21.00;57.70;;;;;;5020853;28;19956;-67
2021/05/13 09:32:15;;;;;;;;;;;21.00;57.80;;;;;;5024738;23;19940;-70
2021/05/13 09:34:41;;;;;;;;;;;21.00;57.70;;;;;;5020333;28;19924;-71
2021/05/13 09:37:06;;;;;;;;;;;21.00;57.70;;;;;;5013431;28;19918;-71
2021/05/13 09:39:32;;;;;;;;;;;21.00;57.60;;;;;;5010455;28;20400;-72
2021/05/13 09:41:57;;;;;;;;;;;21.00;57.60;;;;;;4990026;28;19917;-72
2021/05/13 09:44:30;;;;;;;;;;;21.00;57.60;;;;;;5011475;28;19921;-72
2021/05/13 09:46:56;;;;;;;;;;;21.00;58.10;;;;;;4985531;28;19921;-71
2021/05/13 09:49:21;;;;;;;;;;;21.00;57.10;;;;;;4980317;28;19952;-70
2021/05/13 09:51:47;;;;;;;;;;;21.00;56.90;;;;;;4980087;28;19918;-71
2021/05/13 09:54:12;;;;;;;;;;;21.00;56.90;;;;;;5002370;28;19918;-72
2021/05/13 09:56:47;;;;;;;;;;;21.00;57.10;;;;;;4986573;28;20382;-72
2021/05/13 09:59:29;;;;;;;;;;;20.90;57.30;;;;;;5009100;28;19921;-71
2021/05/13 10:01:54;;;;;;;;;;;21.00;57.40;;;;;;5000861;28;19918;-70
2021/05/13 10:04:20;;;;;;;;;;;21.00;57.50;;;;;;5011522;28;19952;-71
2021/05/13 10:06:45;;;;;;;;;;;20.90;57.30;;;;;;5005288;28;19918;-71
2021/05/13 10:09:14;;;;;;;;;;;21.00;57.30;;;;;;5005742;28;19922;-70
2021/05/13 10:11:41;;;;;;;;;;;20.90;57.10;;;;;;4988951;28;19925;-70
2021/05/13 10:14:07;;;;;;;;;;;21.00;57.50;;;;;;5003697;28;19943;-71
2021/05/13 10:16:32;;;;;;;;;;;20.90;57.50;;;;;;5004222;28;19929;-69
2021/05/13 10:18:59;;;;;;;;;;;20.90;57.50;;;;;;5010533;28;20551;-70
2021/05/13 10:21:25;;;;;;;;;;;20.90;57.50;;;;;;5006914;28;19918;-70
2021/05/13 10:23:52;;;;;;;;;;;20.90;57.50;;;;;;4986738;28;19925;-70
2021/05/13 10:26:30;;;;;;;;;;;20.90;57.50;;;;;;4991943;28;19953;-70
2021/05/13 10:28:55;;;;;;;;;;;21.00;57.60;;;;;;5009838;28;20024;-70
2021/05/13 10:31:33;;;;;;;;;;;21.00;57.50;;;;;;4118329;28;10000586;-70
2021/05/13 10:33:59;;;;;;;;;;;21.00;57.50;;;;;;5013934;28;19961;-71
2021/05/13 10:36:24;;;;;;;;;;;20.90;57.30;;;;;;5017202;28;19974;-70
2021/05/13 10:38:51;;;;;;;;;;;20.90;56.90;;;;;;5019840;28;19917;-69
2021/05/13 10:41:29;;;;;;;;;;;20.90;56.80;;;;;;4985731;28;19928;-70
2021/05/13 10:43:58;;;;;;;;;;;20.90;56.50;;;;;;5014422;28;19918;-69
2021/05/13 10:46:27;;;;;;;;;;;20.90;56.30;;;;;;5016373;28;20302;-69
2021/05/13 10:48:52;;;;;;;;;;;20.90;56.20;;;;;;5010682;28;20009;-71
2021/05/13 10:51:24;;;;;;;;;;;20.90;56.10;;;;;;4997859;28;20392;-70
2021/05/13 10:53:50;;;;;;;;;;;20.90;56.00;;;;;;5005821;28;19917;-70
2021/05/13 10:56:30;;;;;;;;;;;20.80;55.90;;;;;;4999748;28;19967;-71
2021/05/13 10:58:58;;;;;;;;;;;20.90;55.90;;;;;;5008391;28;19932;-71
2021/05/13 11:01:26;;;;;;;;;;;20.80;56.40;;;;;;5010004;28;19917;-71
2021/05/13 11:04:11;;;;;;;;;;;20.90;56.60;;;;;;5012993;28;19944;-71
2021/05/13 11:06:42;;;;;;;;;;;20.90;56.60;;;;;;5005270;28;19921;-71
2021/05/13 11:09:07;;;;;;;;;;;20.90;56.60;;;;;;5011141;28;19991;-71
2021/05/13 11:11:52;;;;;;;;;;;20.80;56.40;;;;;;5010143;28;20367;-72
2021/05/13 11:14:20;;;;;;;;;;;20.90;56.30;;;;;;4983132;28;22100;-72
2021/05/13 11:16:48;;;;;;;;;;;20.90;56.30;;;;;;5008892;28;19957;-72
2021/05/13 11:19:14;;;;;;;;;;;20.80;56.10;;;;;;5009005;28;20004;-72
2021/05/13 11:21:59;;;;;;;;;;;20.80;56.10;;;;;;5011153;28;19918;-75
2021/05/13 11:24:31;;;;;;;;;;;20.80;56.10;;;;;;5005852;28;19930;-77
2021/05/13 11:26:56;;;;;;;;;;;20.90;56.00;;;;;;5008621;28;20016;-74
2021/05/13 11:29:22;;;;;;;;;;;20.90;55.90;;;;;;5011449;28;19982;-77
2021/05/13 11:31:50;;;;;;;;;;;20.80;55.80;;;;;;5003926;28;19917;-74
2021/05/13 11:34:17;;;;;;;;;;;20.80;55.90;;;;;;4999143;28;20287;-72
2021/05/13 11:36:45;;;;;;;;;;;20.90;55.80;;;;;;5015393;28;19918;-77
2021/05/13 11:39:12;;;;;;;;;;;20.80;55.70;;;;;;5007930;28;19941;-77
2021/05/13 11:41:38;;;;;;;;;;;20.90;55.80;;;;;;4972730;28;19927;-72
2021/05/13 11:44:04;;;;;;;;;;;20.80;55.70;;;;;;5007509;28;19922;-71
2021/05/13 11:46:29;;;;;;;;;;;20.80;55.70;;;;;;4990125;28;20483;-71
2021/05/13 11:48:55;;;;;;;;;;;20.80;55.70;;;;;;5006446;28;19929;-72
2021/05/13 11:51:20;;;;;;;;;;;20.80;55.70;;;;;;5012111;28;19923;-72
2021/05/13 11:53:45;;;;;;;;;;;20.90;55.80;;;;;;5020704;28;19917;-72
2021/05/13 11:56:13;;;;;;;;;;;20.90;55.80;;;;;;4998326;28;19924;-72
2021/05/13 11:58:43;;;;;;;;;;;20.80;55.70;;;;;;4999938;28;20361;-73
2021/05/13 12:01:18;;;;;;;;;;;20.80;55.50;;;;;;5009506;28;19961;-76
2021/05/13 12:03:44;;;;;;;;;;;20.80;55.60;;;;;;5020006;23;19929;-53
2021/05/13 12:06:10;;;;;;;;;;;20.90;55.60;;;;;;5020002;28;19925;-54
2021/05/13 12:08:37;;;;;;;;;;;20.80;55.50;;;;;;5021490;28;19917;-49
2021/05/13 12:11:14;;;;;;;;;;;20.80;55.50;;;;;;5012372;28;19921;-52
2021/05/13 12:13:40;;;;;;;;;;;20.80;55.50;;;;;;5009534;28;19921;-51
2021/05/13 12:16:05;;;;;;;;;;;20.80;55.50;;;;;;5006174;28;19921;-52
2021/05/13 12:18:31;;;;;;;;;;;20.80;55.40;;;;;;5002554;28;19928;-51
2021/05/13 12:20:56;;;;;;;;;;;20.80;55.40;;;;;;5001615;28;19917;-55
2021/05/13 12:23:22;;;;;;;;;;;20.80;55.40;;;;;;5005451;28;19918;-51
2021/05/13 12:25:47;;;;;;;;;;;20.80;56.00;;;;;;5006595;28;20341;-56
2021/05/13 12:28:13;;;;;;;;;;;20.80;55.40;;;;;;5010868;28;19925;-56
2021/05/13 12:30:38;;;;;;;;;;;20.80;55.60;;;;;;5012217;28;19923;-51
2021/05/13 12:33:22;;;;;;;;;;;20.80;55.90;;;;;;5012200;28;19917;-54
2021/05/13 12:35:48;;;;;;;;;;;20.80;56.20;;;;;;5007181;28;19917;-54
2021/05/13 12:38:14;;;;;;;;;;;20.80;56.10;;;;;;5008758;28;19917;-51
2021/05/13 12:40:40;;;;;;;;;;;20.70;56.00;;;;;;5008962;28;20005;-52
2021/05/13 12:43:09;;;;;;;;;;;20.70;56.30;;;;;;5000315;28;19921;-52
2021/05/13 12:45:41;;;;;;;;;;;20.70;56.60;;;;;;5009773;28;19929;-51
2021/05/13 12:48:07;;;;;;;;;;;20.70;56.70;;;;;;5009926;28;20323;-51
2021/05/13 12:50:33;;;;;;;;;;;20.70;56.70;;;;;;5011522;28;19991;-50
2021/05/13 12:53:07;;;;;;;;;;;20.70;56.90;;;;;;5008334;28;20004;-51
2021/05/13 12:55:37;;;;;;;;;;;20.70;56.90;;;;;;5003087;28;20009;-53
2021/05/13 12:58:07;;;;;;;;;;;20.70;57.00;;;;;;5002289;28;20279;-53
2021/05/13 13:00:33;;;;;;;;;;;20.70;57.10;;;;;;5002899;28;20003;-50
2021/05/13 13:03:12;;;;;;;;;;;20.70;57.20;;;;;;5011939;28;20326;-56
2021/05/13 13:05:45;;;;;;;;;;;20.70;57.30;;;;;;4404169;28;10000649;-51
2021/05/13 13:08:11;;;;;;;;;;;20.70;57.30;;;;;;5002030;28;20390;-50
2021/05/13 13:10:41;;;;;;;;;;;20.70;57.20;;;;;;5006432;28;19927;-51
2021/05/13 13:13:19;;;;;;;;;;;20.70;56.90;;;;;;5007653;28;19917;-51
2021/05/13 13:15:51;;;;;;;;;;;20.70;57.00;;;;;;5006792;28;19924;-49
2021/05/13 13:18:17;;;;;;;;;;;20.70;56.90;;;;;;5008163;28;19918;-53
2021/05/13 13:20:43;;;;;;;;;;;20.70;56.90;;;;;;5002149;28;20453;-49
2021/05/13 13:23:22;;;;;;;;;;;20.70;56.80;;;;;;5005194;28;19917;-50
2021/05/13 13:25:48;;;;;;;;;;;20.80;56.70;;;;;;5001128;28;19925;-53
2021/05/13 13:28:14;;;;;;;;;;;20.80;56.60;;;;;;5003952;28;20295;-53
2021/05/13 13:30:39;;;;;;;;;;;20.80;56.60;;;;;;5004397;28;19980;-51
2021/05/13 13:33:11;;;;;;;;;;;20.70;57.40;;;;;;5003627;28;19921;-53
2021/05/13 13:35:39;;;;;;;;;;;20.70;56.90;;;;;;4997420;28;19925;-53
2021/05/13 13:38:06;;;;;;;;;;;20.80;57.10;;;;;;5000900;28;19957;-53
2021/05/13 13:40:32;;;;;;;;;;;20.80;57.70;;;;;;5004754;28;19925;-54
2021/05/13 13:42:57;;;;;;;;;;;20.80;57.80;;;;;;5005735;28;19925;-51
2021/05/13 13:45:23;;;;;;;;;;;20.80;58.70;;;;;;5004152;28;19975;-53
2021/05/13 13:47:48;;;;;;;;;;;20.80;58.80;;;;;;5001117;28;20016;-52
2021/05/13 13:50:14;;;;;;;;;;;20.80;58.30;;;;;;5001466;28;19925;-53
2021/05/13 13:52:39;;;;;;;;;;;20.80;58.30;;;;;;5001563;28;20452;-54
2021/05/13 13:55:05;;;;;;;;;;;20.80;58.10;;;;;;5006862;28;19956;-54
2021/05/13 13:57:30;;;;;;;;;;;20.80;57.90;;;;;;5008081;28;20008;-50
2021/05/13 13:59:58;;;;;;;;;;;20.70;58.00;;;;;;4999384;28;19976;-52
2021/05/13 14:02:23;;;;;;;;;;;20.80;57.90;;;;;;5004486;28;19928;-49
2021/05/13 14:04:49;;;;;;;;;;;20.70;57.70;;;;;;5003766;28;19922;-50
2021/05/13 14:07:14;;;;;;;;;;;20.70;57.80;;;;;;5005033;28;19925;-50
2021/05/13 14:09:40;;;;;;;;;;;20.70;57.50;;;;;;5003287;28;20530;-52
2021/05/13 14:12:05;;;;;;;;;;;20.80;57.80;;;;;;5002234;28;19921;-51
2021/05/13 14:14:31;;;;;;;;;;;20.70;57.00;;;;;;5009824;28;19922;-49
2021/05/13 14:16:56;;;;;;;;;;;20.70;57.30;;;;;;5005785;28;19975;-53
2021/05/13 14:19:25;;;;;;;;;;;20.80;57.50;;;;;;5005339;28;19991;-54
2021/05/13 14:21:51;;;;;;;;;;;20.70;57.20;;;;;;5010047;28;20339;-51